Time;durP1;ratioP1;P1;durP2;ratioP2;P2;SDS_P1;SDS_P2;PMS_P1;PMS_P2;Temp;Humidity;BMP_temperature;BMP_pressure;BME280_temperature;BME280_humidity;BME280_pressure;Samples;Min_cycle;Max_cycle;Signal;HPM_P1;HPM_P2
2022/05/03 04:05:22;;;;;;;18.97;16.97;;;7.50;99.90;;;;;;5262596;24;20252;-80
2022/05/03 04:07:51;;;;;;;22.57;18.40;;;7.50;99.90;;;;;;4856813;29;20295;-79
2022/05/03 04:10:20;;;;;;;19.23;17.13;;;7.60;99.90;;;;;;4846353;29;20307;-80
2022/05/03 04:12:48;;;;;;;19.93;16.87;;;7.50;99.90;;;;;;4879632;29;20297;-79
2022/05/03 04:15:16;;;;;;;21.23;19.00;;;7.60;99.90;;;;;;4878604;29;20672;-79
2022/05/03 04:17:45;;;;;;;23.93;20.93;;;7.70;99.90;;;;;;4879036;29;20430;-77
2022/05/03 04:20:15;;;;;;;26.30;21.60;;;7.60;99.90;;;;;;4860526;29;20215;-80
2022/05/03 04:22:45;;;;;;;27.83;23.87;;;7.60;99.90;;;;;;4864791;29;20226;-79
2022/05/03 04:25:14;;;;;;;27.87;24.10;;;7.80;99.90;;;;;;4865594;29;20247;-77
2022/05/03 04:27:42;;;;;;;31.67;26.03;;;7.80;99.90;;;;;;4860495;29;20233;-80
2022/05/03 04:30:11;;;;;;;31.57;25.27;;;7.90;99.90;;;;;;4860448;29;20314;-80
2022/05/03 04:32:40;;;;;;;30.17;26.07;;;7.90;99.90;;;;;;4847715;29;20258;-77
2022/05/03 04:35:09;;;;;;;30.23;24.40;;;7.90;99.90;;;;;;4841794;29;20284;-80
2022/05/03 04:37:37;;;;;;;25.03;22.33;;;8.00;99.90;;;;;;4841074;29;20258;-80
2022/05/03 04:40:08;;;;;;;27.80;24.17;;;8.00;99.90;;;;;;4840955;29;20249;-79
2022/05/03 04:42:36;;;;;;;27.83;23.67;;;8.10;99.90;;;;;;4841405;29;20223;-78
2022/05/03 04:45:05;;;;;;;26.03;22.37;;;8.10;99.90;;;;;;4841501;29;20218;-78
2022/05/03 04:47:33;;;;;;;25.40;21.93;;;8.20;99.90;;;;;;4838114;29;20238;-78
2022/05/03 04:50:01;;;;;;;22.87;20.43;;;8.20;99.90;;;;;;4840807;29;20254;-78
2022/05/03 04:52:30;;;;;;;21.87;19.50;;;8.30;99.90;;;;;;4839822;29;20244;-77
2022/05/03 04:54:58;;;;;;;17.73;15.90;;;8.40;99.90;;;;;;4840382;29;20552;-78
2022/05/03 04:57:28;;;;;;;16.13;14.53;;;8.60;99.90;;;;;;4839496;29;20246;-77
2022/05/03 04:59:56;;;;;;;17.07;13.30;;;8.80;99.90;;;;;;4841180;29;20221;-77
2022/05/03 05:02:24;;;;;;;13.57;11.97;;;8.90;99.90;;;;;;4840992;29;20232;-81
2022/05/03 05:04:52;;;;;;;12.43;11.13;;;9.20;99.90;;;;;;4841148;29;20314;-80
2022/05/03 05:07:20;;;;;;;10.67;9.67;;;9.30;99.90;;;;;;4841230;29;20222;-79
2022/05/03 05:12:36;;;;;;;9.50;8.60;;;9.50;99.90;;;;;;4841287;29;20287;-81
2022/05/03 05:15:05;;;;;;;9.67;8.70;;;9.50;99.90;;;;;;4840582;29;20219;-79
2022/05/03 05:17:34;;;;;;;9.90;8.97;;;9.50;99.90;;;;;;4825875;29;20212;-78
2022/05/03 05:20:03;;;;;;;9.50;8.60;;;9.60;99.90;;;;;;4839897;29;20693;-78
2022/05/03 05:22:31;;;;;;;9.13;8.23;;;9.70;99.90;;;;;;4840674;29;20231;-80
2022/05/03 05:25:00;;;;;;;10.23;9.23;;;9.70;99.90;;;;;;4840498;29;20250;-80
2022/05/03 05:27:28;;;;;;;10.80;9.70;;;9.70;99.90;;;;;;4840656;29;20212;-78
2022/05/03 05:29:57;;;;;;;10.50;9.50;;;9.70;99.90;;;;;;4842393;29;20679;-80
2022/05/03 05:32:26;;;;;;;10.47;9.47;;;9.70;99.90;;;;;;4843825;29;20241;-78
2022/05/03 05:34:54;;;;;;;10.53;9.53;;;9.70;99.90;;;;;;4836130;29;20250;-80
2022/05/03 05:37:22;;;;;;;10.33;9.33;;;9.80;99.90;;;;;;4825624;29;20212;-78
2022/05/03 05:39:50;;;;;;;10.77;9.10;;;9.90;99.90;;;;;;4825486;29;20252;-78
2022/05/03 05:42:18;;;;;;;10.73;9.00;;;9.80;99.90;;;;;;4824962;29;20232;-80
2022/05/03 05:44:47;;;;;;;11.90;9.53;;;9.90;99.90;;;;;;4824193;29;20653;-81
2022/05/03 05:47:17;;;;;;;9.67;8.67;;;10.00;99.90;;;;;;4834254;29;20223;-79
2022/05/03 05:49:45;;;;;;;10.93;9.47;;;10.00;99.90;;;;;;4843016;29;20226;-78
2022/05/03 05:55:01;;;;;;;10.20;9.17;;;10.20;99.90;;;;;;4843133;29;20294;-78
2022/05/03 05:57:29;;;;;;;9.70;8.50;;;10.20;99.90;;;;;;4843044;29;20364;-76
2022/05/03 05:59:57;;;;;;;10.57;9.10;;;10.30;99.90;;;;;;4843012;29;20663;-79
2022/05/03 06:02:26;;;;;;;10.70;9.60;;;10.50;99.90;;;;;;4843157;29;20263;-77
2022/05/03 06:04:54;;;;;;;10.57;9.50;;;10.50;99.90;;;;;;4842809;29;20250;-79
2022/05/03 06:07:22;;;;;;;11.50;8.83;;;10.60;99.90;;;;;;4843097;29;20250;-79
2022/05/03 06:09:51;;;;;;;10.07;8.93;;;10.60;99.90;;;;;;4842525;29;20686;-80
2022/05/03 06:12:20;;;;;;;9.20;8.30;;;10.70;99.90;;;;;;4845202;29;20216;-77
2022/05/03 06:14:48;;;;;;;9.13;8.13;;;10.70;99.90;;;;;;4844410;29;20215;-80
2022/05/03 06:17:17;;;;;;;12.00;8.10;;;10.70;99.90;;;;;;4846212;29;20231;-78
2022/05/03 06:19:47;;;;;;;8.50;7.27;;;10.80;99.90;;;;;;4844872;29;20706;-75
2022/05/03 06:22:15;;;;;;;9.43;8.10;;;10.90;99.90;;;;;;4843987;29;20284;-77
2022/05/03 06:24:46;;;;;;;8.57;6.93;;;10.90;99.90;;;;;;4845006;29;20239;-79
2022/05/03 06:27:15;;;;;;;8.97;6.20;;;11.00;99.90;;;;;;4844740;29;20199;-76
2022/05/03 06:29:43;;;;;;;7.00;6.20;;;11.10;99.90;;;;;;4843582;29;20243;-79
2022/05/03 06:32:12;;;;;;;8.27;6.40;;;11.20;99.90;;;;;;4843881;29;20220;-79
2022/05/03 06:34:40;;;;;;;6.93;5.77;;;11.20;99.90;;;;;;4843274;29;20675;-78
2022/05/03 06:37:10;;;;;;;8.23;6.30;;;11.50;99.90;;;;;;4843503;29;20670;-80
2022/05/03 06:39:38;;;;;;;7.00;5.87;;;11.50;99.90;;;;;;4843266;29;20267;-78
2022/05/03 06:42:08;;;;;;;7.30;6.40;;;11.40;99.90;;;;;;4843213;29;20224;-80
2022/05/03 06:44:38;;;;;;;10.43;7.03;;;11.50;99.90;;;;;;4843615;29;20239;-78
2022/05/03 06:47:08;;;;;;;8.03;7.23;;;11.60;99.90;;;;;;4843393;29;20302;-75
2022/05/03 06:49:37;;;;;;;8.30;6.20;;;11.70;99.90;;;;;;4845202;29;20649;-73
2022/05/03 06:52:05;;;;;;;6.50;5.70;;;11.70;99.90;;;;;;4844626;29;20219;-78
2022/05/03 06:54:35;;;;;;;7.23;6.53;;;11.90;99.90;;;;;;4845570;29;20236;-75
2022/05/03 06:57:04;;;;;;;7.87;6.40;;;11.90;99.90;;;;;;4861151;29;20221;-76
2022/05/03 06:59:32;;;;;;;6.20;5.60;;;12.00;99.90;;;;;;4863703;29;20210;-78
2022/05/03 07:02:00;;;;;;;8.33;6.00;;;12.10;99.90;;;;;;4862868;29;20283;-74
2022/05/03 07:04:28;;;;;;;7.50;5.27;;;12.10;99.90;;;;;;4862755;29;20235;-74
2022/05/03 07:06:57;;;;;;;5.77;5.17;;;12.20;99.90;;;;;;4862618;29;20427;-79
2022/05/03 07:09:25;;;;;;;6.03;5.30;;;12.50;99.90;;;;;;4862405;29;20275;-78
2022/05/03 07:11:55;;;;;;;6.13;5.53;;;12.70;99.90;;;;;;4861298;29;20386;-78
2022/05/03 07:14:23;;;;;;;5.57;4.97;;;12.90;99.90;;;;;;4861408;29;20275;-75
2022/05/03 07:16:51;;;;;;;6.83;5.23;;;13.20;99.90;;;;;;4861461;29;20215;-80
2022/05/03 07:24:50;;;;;;;7.80;5.50;;;14.10;99.90;;;;;;4860575;29;20235;-80
2022/05/03 07:27:20;;;;;;;7.77;5.30;;;14.80;99.90;;;;;;4861278;29;20245;-79
2022/05/03 07:29:48;;;;;;;5.60;5.00;;;14.90;99.90;;;;;;4860934;29;20218;-79
2022/05/03 07:32:19;;;;;;;4.93;4.33;;;15.20;99.90;;;;;;4861018;29;20344;-79
2022/05/03 07:34:47;;;;;;;6.60;5.13;;;15.10;99.90;;;;;;4861045;29;20215;-80
2022/05/03 07:37:16;;;;;;;5.43;4.70;;;14.50;99.90;;;;;;4860786;29;20258;-76
2022/05/03 07:39:44;;;;;;;5.53;4.80;;;14.80;99.90;;;;;;4860763;29;20211;-79
2022/05/03 07:42:12;;;;;;;5.40;4.90;;;15.10;99.90;;;;;;4860765;29;20215;-79
2022/05/03 07:44:42;;;;;;;6.40;4.70;;;15.70;99.90;;;;;;4860681;29;20266;-78
2022/05/03 07:47:10;;;;;;;5.00;4.50;;;16.40;99.90;;;;;;4860770;29;20265;-79
2022/05/03 07:49:38;;;;;;;6.23;4.70;;;17.20;99.90;;;;;;4860309;29;20696;-76
2022/05/03 07:52:07;;;;;;;4.70;4.00;;;17.40;99.90;;;;;;4860310;29;20309;-76
2022/05/03 07:54:35;;;;;;;6.77;4.23;;;18.00;99.90;;;;;;4851369;29;20211;-76
2022/05/03 07:57:05;;;;;;;4.73;4.23;;;18.50;99.90;;;;;;4842236;29;20749;-75
2022/05/03 07:59:33;;;;;;;4.03;3.73;;;18.70;99.90;;;;;;4842315;29;20235;-76
2022/05/03 08:02:03;;;;;;;4.20;3.80;;;18.70;99.90;;;;;;4842262;29;20306;-77
2022/05/03 08:04:33;;;;;;;5.47;4.20;;;19.10;99.90;;;;;;4842135;29;20246;-76
2022/05/03 08:07:04;;;;;;;4.90;3.90;;;20.20;99.90;;;;;;4842253;29;20208;-78
2022/05/03 08:09:34;;;;;;;4.33;3.70;;;21.60;99.90;;;;;;4841531;29;20626;-77
2022/05/03 08:12:03;;;;;;;4.93;3.75;;;22.10;99.90;;;;;;4841554;29;20267;-78
2022/05/03 08:14:31;;;;;;;4.88;3.40;;;22.00;99.90;;;;;;4841665;29;20241;-79
2022/05/03 08:17:04;;;;;;;4.30;3.15;;;22.90;99.90;;;;;;4842227;29;20204;-78
2022/05/03 08:19:32;;;;;;;4.50;3.60;;;23.00;99.90;;;;;;4843230;29;20211;-77
2022/05/03 08:22:01;;;;;;;4.00;3.50;;;23.00;99.50;;;;;;4844429;29;20243;-77
2022/05/03 08:24:29;;;;;;;3.85;3.10;;;22.10;99.90;;;;;;4846594;29;20236;-78
2022/05/03 08:26:59;;;;;;;3.67;3.37;;;21.10;99.90;;;;;;4846110;29;20586;-78
2022/05/03 08:29:29;;;;;;;5.20;3.97;;;20.60;99.90;;;;;;4843467;29;20235;-76
2022/05/03 08:31:57;;;;;;;4.10;3.63;;;19.90;99.90;;;;;;4841854;29;20255;-75
2022/05/03 08:34:27;;;;;;;4.30;3.90;;;19.60;99.90;;;;;;4842192;29;20298;-78
2022/05/03 08:42:27;;;;;;;4.37;3.97;;;19.20;99.90;;;;;;4841986;29;20221;-76
2022/05/03 08:44:57;;;;;;;4.50;4.10;;;19.00;99.90;;;;;;4841849;29;20263;-76
2022/05/03 08:47:27;;;;;;;4.97;4.00;;;18.70;99.90;;;;;;4841977;29;20302;-75
2022/05/03 08:50:02;;;;;;;6.13;4.47;;;18.80;99.90;;;;;;4841786;29;20269;-77
2022/05/03 08:52:33;;;;;;;7.07;4.33;;;18.70;99.90;;;;;;4841512;29;20279;-75
2022/05/03 08:55:02;;;;;;;5.67;4.47;;;18.60;99.90;;;;;;4841954;29;20228;-77
2022/05/03 08:57:30;;;;;;;5.03;4.10;;;18.60;99.90;;;;;;4842098;29;20212;-75
2022/05/03 08:59:58;;;;;;;6.33;4.27;;;18.70;99.90;;;;;;4841710;29;20261;-76
2022/05/03 09:02:26;;;;;;;5.10;4.57;;;19.30;99.90;;;;;;4841356;29;20770;-76
2022/05/03 09:04:54;;;;;;;4.70;4.30;;;19.40;99.90;;;;;;4844682;29;20270;-75
2022/05/03 09:07:25;;;;;;;6.63;4.50;;;19.60;99.90;;;;;;4845217;29;20250;-75
2022/05/03 09:09:55;;;;;;;5.80;4.70;;;18.60;99.90;;;;;;4844964;29;20211;-77
2022/05/03 09:12:28;;;;;;;5.57;4.80;;;19.20;99.90;;;;;;4845263;29;20223;-77
2022/05/03 09:14:58;;;;;;;5.73;4.30;;;19.50;99.90;;;;;;4844960;29;20200;-76
2022/05/03 09:17:38;;;;;;;5.53;4.13;;;18.90;99.90;;;;;;4845383;29;20280;-76
2022/05/03 09:25:47;;;;;;;5.47;4.10;;;19.00;99.90;;;;;;4845064;29;20231;-76
2022/05/03 09:28:15;;;;;;;4.90;3.97;;;19.90;99.90;;;;;;4845555;29;20219;-77
2022/05/03 09:30:50;;;;;;;4.70;3.70;;;20.90;99.90;;;;;;4844941;29;20255;-77
2022/05/03 09:33:20;;;;;;;3.47;3.17;;;21.80;99.90;;;;;;4845236;29;20306;-77
2022/05/03 09:35:49;;;;;;;3.23;2.70;;;22.00;99.90;;;;;;4845277;29;20303;-76
2022/05/03 09:38:19;;;;;;;2.33;2.13;;;22.20;99.90;;;;;;4845187;29;20287;-77
2022/05/03 09:40:47;;;;;;;2.30;2.03;;;22.40;98.50;;;;;;4844976;29;20307;-79
2022/05/03 09:43:17;;;;;;;2.60;2.30;;;21.60;96.40;;;;;;4845006;29;20215;-77
2022/05/03 09:45:45;;;;;;;2.53;2.20;;;21.80;99.10;;;;;;4844972;29;20239;-76
2022/05/03 09:48:13;;;;;;;3.10;2.50;;;22.00;98.90;;;;;;4844435;29;20705;-77
2022/05/03 09:50:44;;;;;;;2.77;2.50;;;22.30;97.60;;;;;;4844713;29;20239;-76
2022/05/03 09:53:18;;;;;;;4.93;4.07;;;22.50;99.90;;;;;;4844289;29;20715;-77
2022/05/03 09:55:50;;;;;;;4.50;3.83;;;22.30;97.10;;;;;;4844555;29;20211;-76
2022/05/03 09:58:20;;;;;;;4.93;3.80;;;22.40;98.30;;;;;;4843058;29;20285;-75
2022/05/03 10:00:51;;;;;;;4.30;3.90;;;22.50;98.60;;;;;;4844201;29;20310;-75
2022/05/03 10:03:20;;;;;;;5.00;4.00;;;22.40;97.30;;;;;;4844139;29;20271;-76
2022/05/03 10:05:50;;;;;;;5.43;4.93;;;22.20;99.10;;;;;;4843886;29;20236;-77
2022/05/03 10:08:21;;;;;;;7.40;6.70;;;22.40;99.90;;;;;;4844497;29;20600;-79
2022/05/03 10:10:57;;;;;;;7.73;6.57;;;22.20;99.90;;;;;;4844166;29;20252;-75
2022/05/03 10:13:26;;;;;;;7.23;6.53;;;22.10;99.90;;;;;;4843925;29;20689;-77
2022/05/03 10:21:39;;;;;;;7.40;6.70;;;21.70;99.90;;;;;;4827846;29;20302;-76
2022/05/03 10:24:09;;;;;;;7.30;6.60;;;21.50;99.90;;;;;;4847941;29;20698;-77
2022/05/03 10:27:05;;;;;;;7.83;6.67;;;22.20;99.90;;;;;;4843947;29;20226;-77
2022/05/03 10:29:35;;;;;;;6.27;5.60;;;22.30;99.90;;;;;;4843688;29;20658;-78
2022/05/03 10:32:14;;;;;;;6.40;5.80;;;22.70;99.90;;;;;;4843931;29;20216;-79
2022/05/03 10:34:59;;;;;;;7.60;4.95;;;23.00;98.10;;;;;;4843277;29;20260;-78
2022/05/03 10:38:04;;;;;;;6.53;5.88;;;24.00;95.00;;;;;;4844504;29;20199;-77
2022/05/03 10:40:38;;;;;;;6.15;5.53;;;23.30;97.30;;;;;;4843694;29;20220;-78
2022/05/03 10:43:24;;;;;;;6.38;5.45;;;24.00;96.00;;;;;;4843883;29;20588;-77
2022/05/03 10:45:55;;;;;;;6.38;5.50;;;24.00;97.00;;;;;;4843627;29;20407;-80
2022/05/03 10:48:25;;;;;;;7.78;6.25;;;25.10;95.40;;;;;;4844171;29;20204;-77
2022/05/03 10:50:55;;;;;;;6.63;4.82;;;25.10;94.20;;;;;;4844451;29;20637;-79
2022/05/03 10:53:28;;;;;;;5.57;4.70;;;25.10;93.70;;;;;;4843425;29;20245;-77
2022/05/03 10:56:09;;;;;;;6.35;5.20;;;25.60;93.90;;;;;;4843647;29;20307;-78
2022/05/03 10:58:41;;;;;;;5.35;4.50;;;25.00;94.00;;;;;;4842950;29;20682;-77
2022/05/03 11:01:17;;;;;;;4.55;4.15;;;26.10;91.40;;;;;;4843052;29;20230;-77
2022/05/03 11:04:08;;;;;;;4.20;3.80;;;26.60;91.40;;;;;;4842842;29;20575;-78
2022/05/03 11:06:41;;;;;;;5.05;4.03;;;26.50;92.90;;;;;;4842532;29;20235;-79
2022/05/03 11:09:10;;;;;;;4.97;4.50;;;26.50;90.70;;;;;;4843099;29;20204;-81
2022/05/03 11:12:07;;;;;;;4.85;4.45;;;27.30;83.20;;;;;;4843144;29;20223;-79
2022/05/03 11:14:51;;;;;;;5.00;4.55;;;27.20;86.70;;;;;;4842835;29;20553;-79
2022/05/03 11:17:19;;;;;;;4.75;4.20;;;25.60;83.60;;;;;;4842919;29;20730;-78
2022/05/03 11:19:51;;;;;;;4.60;4.20;;;25.40;89.90;;;;;;4842593;29;20281;-77
2022/05/03 11:22:22;;;;;;;3.90;3.47;;;25.00;84.50;;;;;;4842626;29;20200;-75
2022/05/03 11:24:51;;;;;;;4.80;4.30;;;25.20;90.50;;;;;;4842331;29;20276;-77
2022/05/03 11:27:20;;;;;;;4.80;4.30;;;24.70;89.20;;;;;;4841546;29;20577;-79
2022/05/03 11:29:55;;;;;;;5.72;5.00;;;24.10;92.00;;;;;;4842742;29;20352;-77
2022/05/03 11:32:32;;;;;;;5.25;4.75;;;23.90;90.60;;;;;;4843547;29;20199;-78
2022/05/03 11:35:12;;;;;;;6.28;5.68;;;23.40;92.60;;;;;;4844232;29;20277;-78
2022/05/03 11:37:54;;;;;;;5.07;4.30;;;23.00;94.30;;;;;;4843732;29;20259;-76
2022/05/03 11:40:24;;;;;;;5.50;4.90;;;22.90;94.20;;;;;;4844076;29;20650;-76
2022/05/03 11:42:53;;;;;;;8.50;5.70;;;22.50;92.50;;;;;;4843147;29;20699;-75
2022/05/03 11:45:22;;;;;;;6.97;5.47;;;22.30;96.20;;;;;;4843110;29;20215;-77
2022/05/03 11:47:52;;;;;;;5.73;5.13;;;22.30;92.90;;;;;;4843076;29;20219;-75
2022/05/03 11:56:04;;;;;;;5.50;4.83;;;22.60;92.80;;;;;;4843015;29;20251;-75
2022/05/03 11:58:35;;;;;;;6.87;6.07;;;22.70;93.70;;;;;;4843247;29;20589;-76
2022/05/03 12:01:14;;;;;;;6.17;5.40;;;22.70;94.90;;;;;;4843520;29;20204;-76
2022/05/03 12:03:46;;;;;;;6.63;5.70;;;22.20;94.60;;;;;;4843336;29;20207;-74
2022/05/03 12:06:15;;;;;;;5.47;4.97;;;22.30;95.90;;;;;;4842669;29;20604;-75
2022/05/03 12:08:48;;;;;;;6.90;5.50;;;22.60;95.00;;;;;;4843131;29;20238;-74
2022/05/03 12:11:24;;;;;;;5.10;4.50;;;22.60;93.70;;;;;;4842388;29;20586;-77
2022/05/03 12:13:53;;;;;;;5.13;4.63;;;22.80;94.90;;;;;;4842520;29;20203;-77
2022/05/03 12:16:24;;;;;;;6.07;4.83;;;22.60;92.20;;;;;;4842316;29;20242;-75
2022/05/03 12:18:55;;;;;;;5.07;4.40;;;22.30;91.40;;;;;;4842309;29;20215;-74
2022/05/03 12:21:28;;;;;;;5.40;4.63;;;21.90;94.90;;;;;;4842207;29;20643;-73
2022/05/03 12:24:01;;;;;;;5.30;4.80;;;21.80;94.10;;;;;;4842250;29;20260;-75
2022/05/03 12:26:37;;;;;;;5.87;5.27;;;22.00;95.80;;;;;;4842588;29;20712;-75
2022/05/03 12:29:07;;;;;;;7.30;5.23;;;21.90;94.40;;;;;;4842862;29;20255;-75
2022/05/03 12:31:38;;;;;;;5.30;4.80;;;21.30;95.80;;;;;;4842103;29;20215;-76
2022/05/03 12:34:08;;;;;;;5.57;5.07;;;21.20;95.90;;;;;;4841868;29;20290;-75
2022/05/03 12:36:38;;;;;;;7.77;5.67;;;21.50;94.90;;;;;;4841479;29;20216;-75
2022/05/03 12:39:15;;;;;;;6.53;5.90;;;21.30;95.00;;;;;;4841706;29;20222;-78
2022/05/03 12:41:56;;;;;;;5.83;4.73;;;21.70;94.80;;;;;;4842084;29;20287;-76
2022/05/03 12:44:25;;;;;;;5.33;4.83;;;22.20;95.40;;;;;;4841852;29;20243;-75
2022/05/03 12:47:03;;;;;;;6.73;5.20;;;22.40;94.00;;;;;;4838449;29;20244;-75
2022/05/03 12:49:33;;;;;;;5.77;5.17;;;22.40;93.60;;;;;;4823508;29;20234;-75
2022/05/03 12:52:02;;;;;;;8.30;5.30;;;22.60;94.70;;;;;;4823452;29;20691;-78
2022/05/03 12:54:31;;;;;;;6.33;5.43;;;22.60;93.10;;;;;;4823553;29;20220;-77
2022/05/03 12:59:45;;;;;;;5.77;4.93;;;22.30;91.70;;;;;;4823381;29;20250;-74
2022/05/03 13:02:17;;;;;;;5.43;4.00;;;22.30;93.10;;;;;;4824190;29;20220;-76
2022/05/03 13:04:45;;;;;;;5.00;4.47;;;22.60;93.90;;;;;;4823809;29;20223;-74
2022/05/03 13:07:13;;;;;;;5.47;4.33;;;22.50;93.80;;;;;;4824033;29;20324;-75
2022/05/03 13:09:41;;;;;;;5.90;4.50;;;22.50;94.20;;;;;;4823950;29;20331;-77
2022/05/03 13:12:12;;;;;;;4.90;4.30;;;22.50;93.50;;;;;;4823897;29;20212;-76
2022/05/03 13:14:41;;;;;;;4.70;3.80;;;22.50;93.60;;;;;;4824373;29;20667;-75
2022/05/03 13:17:10;;;;;;;4.53;4.10;;;22.60;94.30;;;;;;4823814;29;20295;-78
2022/05/03 13:19:39;;;;;;;5.47;4.47;;;23.10;94.00;;;;;;4823684;29;20219;-76
2022/05/03 13:22:07;;;;;;;7.60;4.77;;;23.00;90.70;;;;;;4823561;29;20327;-76
2022/05/03 13:24:39;;;;;;;5.33;4.33;;;22.80;89.60;;;;;;4823528;29;20316;-77
2022/05/03 13:27:07;;;;;;;4.23;3.83;;;23.20;91.90;;;;;;4823417;29;20232;-76
2022/05/03 13:29:35;;;;;;;5.27;3.70;;;23.20;90.60;;;;;;4823259;29;20303;-76
2022/05/03 13:32:04;;;;;;;4.50;4.10;;;23.40;90.90;;;;;;4823041;29;20676;-76
2022/05/03 13:34:32;;;;;;;3.80;3.30;;;23.30;88.00;;;;;;4823279;29;20679;-74
2022/05/03 13:42:33;;;;;;;4.63;4.23;;;23.20;91.50;;;;;;4822841;29;20265;-76
2022/05/03 13:45:01;;;;;;;4.27;3.87;;;23.00;90.40;;;;;;4823464;29;20220;-77
2022/05/03 13:47:30;;;;;;;5.30;3.57;;;23.10;93.30;;;;;;4841084;29;20227;-75
2022/05/03 13:49:58;;;;;;;4.40;4.00;;;23.20;89.50;;;;;;4841600;29;20279;-74
2022/05/03 13:52:30;;;;;;;4.00;3.60;;;22.90;92.30;;;;;;4844466;29;20227;-77
2022/05/03 13:54:58;;;;;;;3.67;3.00;;;22.90;92.30;;;;;;4844541;29;20196;-76
2022/05/03 13:57:26;;;;;;;4.27;3.60;;;23.20;91.30;;;;;;4844497;29;20271;-75
2022/05/03 13:59:55;;;;;;;4.83;4.07;;;23.20;88.10;;;;;;4844612;29;20220;-76
2022/05/03 14:02:23;;;;;;;5.63;3.37;;;23.00;89.40;;;;;;4844473;29;20656;-75
2022/05/03 14:04:52;;;;;;;4.73;3.03;;;23.10;90.70;;;;;;4844323;29;20232;-76
2022/05/03 14:07:20;;;;;;;3.40;3.10;;;22.80;89.00;;;;;;4844185;29;20326;-75
2022/05/03 14:09:49;;;;;;;4.50;3.30;;;23.00;85.00;;;;;;4844384;29;20223;-77
2022/05/03 14:12:19;;;;;;;3.70;3.23;;;22.80;88.70;;;;;;4844557;29;20294;-77
2022/05/03 14:14:48;;;;;;;3.47;3.10;;;22.80;89.50;;;;;;4844318;29;20266;-76
2022/05/03 14:17:16;;;;;;;4.10;3.37;;;22.40;91.10;;;;;;4845269;29;20219;-78
2022/05/03 14:19:45;;;;;;;5.20;3.33;;;22.20;86.40;;;;;;4845897;29;20215;-76
2022/05/03 14:22:13;;;;;;;5.43;3.53;;;22.10;87.80;;;;;;4845203;29;20216;-75
2022/05/03 14:24:43;;;;;;;6.60;3.73;;;22.00;90.10;;;;;;4845461;29;20302;-77
2022/05/03 14:27:13;;;;;;;5.60;4.07;;;21.60;89.70;;;;;;4845683;29;20331;-76
2022/05/03 14:29:41;;;;;;;4.97;4.40;;;21.70;90.30;;;;;;4845694;29;20268;-75
2022/05/03 14:32:10;;;;;;;5.00;4.43;;;21.60;88.90;;;;;;4845129;29;20216;-75
2022/05/03 14:34:38;;;;;;;4.43;3.43;;;21.50;89.00;;;;;;4852056;29;20288;-76
2022/05/03 14:37:09;;;;;;;4.37;3.70;;;21.70;88.20;;;;;;4846582;29;20222;-79
2022/05/03 14:39:38;;;;;;;5.07;3.40;;;21.70;92.20;;;;;;4846562;29;20250;-75
2022/05/03 14:42:10;;;;;;;6.00;3.40;;;22.00;92.40;;;;;;4847242;29;20255;-77
2022/05/03 14:44:39;;;;;;;3.33;2.90;;;21.60;90.40;;;;;;4839481;29;20209;-74
2022/05/03 14:47:08;;;;;;;4.47;3.67;;;22.00;91.70;;;;;;4827557;29;20323;-75
2022/05/03 14:49:38;;;;;;;4.57;3.50;;;22.20;92.20;;;;;;4826753;29;20219;-74
2022/05/03 14:52:14;;;;;;;3.97;3.50;;;22.00;91.00;;;;;;4825677;29;20626;-74
2022/05/03 14:54:44;;;;;;;3.93;3.00;;;22.10;89.60;;;;;;4827054;29;20201;-75
2022/05/03 15:02:54;;;;;;;4.57;3.07;;;22.00;91.10;;;;;;4825612;29;20683;-73
2022/05/03 15:05:23;;;;;;;4.20;3.00;;;21.90;90.30;;;;;;4826004;29;20228;-78
2022/05/03 15:07:53;;;;;;;3.30;3.00;;;21.80;90.50;;;;;;4825747;29;20641;-76
2022/05/03 15:10:28;;;;;;;3.43;2.70;;;21.60;90.90;;;;;;4825170;29;20647;-76
2022/05/03 15:12:58;;;;;;;6.53;3.10;;;21.20;91.40;;;;;;4825866;29;20675;-77
2022/05/03 15:15:29;;;;;;;3.23;2.67;;;21.40;90.40;;;;;;4825965;29;20700;-76
2022/05/03 15:17:57;;;;;;;3.93;2.20;;;21.50;87.20;;;;;;4825965;29;20205;-77
2022/05/03 15:20:28;;;;;;;2.63;2.17;;;21.50;90.10;;;;;;4825877;29;20220;-78
2022/05/03 15:25:44;;;;;;;2.73;2.40;;;21.50;85.60;;;;;;4826765;29;20258;-75
2022/05/03 15:28:12;;;;;;;4.73;3.17;;;21.50;87.20;;;;;;4826331;29;20262;-75
2022/05/03 15:30:44;;;;;;;5.53;2.80;;;21.30;84.30;;;;;;4830929;29;20273;-77
2022/05/03 15:33:12;;;;;;;3.63;3.00;;;21.10;87.10;;;;;;4829255;29;20593;-74
2022/05/03 15:35:41;;;;;;;3.23;2.70;;;20.90;84.60;;;;;;4827003;29;20750;-79
2022/05/03 15:38:10;;;;;;;3.77;2.43;;;20.90;85.10;;;;;;4826549;29;20212;-76
2022/05/03 15:40:38;;;;;;;2.47;2.27;;;20.90;87.40;;;;;;4828238;29;20216;-76
2022/05/03 15:43:07;;;;;;;3.07;2.00;;;20.90;86.80;;;;;;4837950;29;20745;-76
2022/05/03 15:45:37;;;;;;;2.50;2.20;;;20.90;86.00;;;;;;4848331;29;20258;-75
2022/05/03 15:48:08;;;;;;;3.20;2.20;;;20.90;84.50;;;;;;4848165;29;20717;-77
2022/05/03 15:50:36;;;;;;;2.53;2.17;;;20.80;86.00;;;;;;4846913;29;20286;-76
2022/05/03 15:53:04;;;;;;;3.27;2.53;;;20.80;88.80;;;;;;4849350;29;20316;-74
2022/05/03 15:55:33;;;;;;;4.83;2.40;;;20.80;87.00;;;;;;4848739;29;20254;-76
2022/05/03 15:58:01;;;;;;;4.47;2.60;;;20.70;89.80;;;;;;4848808;29;20235;-75
2022/05/03 16:00:29;;;;;;;3.90;2.30;;;20.70;90.50;;;;;;4850315;29;20376;-75
2022/05/03 16:02:59;;;;;;;2.63;2.03;;;20.50;90.20;;;;;;4849964;29;20211;-76
2022/05/03 16:05:28;;;;;;;2.60;2.40;;;20.50;89.80;;;;;;4846929;29;20231;-74
2022/05/03 16:07:57;;;;;;;4.37;2.60;;;20.40;91.30;;;;;;4846563;29;20304;-78
2022/05/03 16:10:27;;;;;;;4.57;2.73;;;20.30;89.70;;;;;;4845210;29;20336;-75
2022/05/03 16:12:56;;;;;;;3.30;2.63;;;20.10;89.40;;;;;;4845956;29;20294;-76
2022/05/03 16:15:24;;;;;;;3.27;2.40;;;20.00;90.00;;;;;;4846959;29;20207;-77
2022/05/03 16:17:54;;;;;;;2.67;2.47;;;20.00;91.60;;;;;;4848522;29;20222;-74
2022/05/03 16:20:29;;;;;;;3.07;2.50;;;20.00;90.60;;;;;;4846756;29;20199;-75
2022/05/03 16:22:58;;;;;;;3.60;3.07;;;19.90;91.00;;;;;;4850875;29;20207;-74
2022/05/03 16:25:26;;;;;;;3.13;2.80;;;19.80;91.00;;;;;;4850150;29;20303;-76
2022/05/03 16:27:54;;;;;;;3.70;2.47;;;19.80;90.80;;;;;;4849680;29;20227;-75
2022/05/03 16:30:23;;;;;;;2.80;2.50;;;19.70;91.00;;;;;;4843527;29;20295;-74
2022/05/03 16:32:52;;;;;;;3.63;2.43;;;19.80;91.70;;;;;;4843812;29;20215;-76
2022/05/03 16:35:20;;;;;;;4.27;2.50;;;19.60;90.90;;;;;;4842636;29;20651;-74
2022/05/03 16:43:21;;;;;;;4.50;2.80;;;19.60;91.20;;;;;;4824377;29;20231;-75
2022/05/03 16:45:50;;;;;;;5.83;3.27;;;19.40;92.30;;;;;;4824075;29;20310;-76
2022/05/03 16:48:18;;;;;;;4.30;2.83;;;19.30;92.20;;;;;;4831096;29;20736;-76
2022/05/03 16:50:46;;;;;;;3.20;2.90;;;19.30;92.30;;;;;;4848343;29;20207;-76
2022/05/03 16:53:16;;;;;;;5.07;2.73;;;19.20;91.60;;;;;;4859640;29;20211;-73
2022/05/03 16:55:44;;;;;;;5.43;2.97;;;19.10;92.50;;;;;;4855858;29;20215;-76
2022/05/03 16:58:15;;;;;;;2.93;2.53;;;19.00;93.20;;;;;;4858287;29;20246;-75
2022/05/03 17:00:43;;;;;;;3.10;2.30;;;19.00;91.70;;;;;;4859875;29;20211;-76
2022/05/03 17:03:15;;;;;;;2.50;2.30;;;19.10;92.10;;;;;;4860218;29;20234;-76
2022/05/03 17:05:46;;;;;;;5.43;2.47;;;19.00;91.90;;;;;;4859392;29;20248;-76
2022/05/03 17:08:17;;;;;;;4.70;2.70;;;18.90;91.40;;;;;;4858086;29;20314;-75
2022/05/03 17:10:45;;;;;;;5.13;2.70;;;18.80;91.90;;;;;;4859923;29;20215;-75
2022/05/03 17:13:15;;;;;;;3.23;2.40;;;18.70;91.40;;;;;;4860038;29;20629;-77
2022/05/03 17:15:43;;;;;;;2.40;2.20;;;18.70;91.90;;;;;;4851072;29;20207;-75
2022/05/03 17:18:11;;;;;;;4.00;2.70;;;18.60;91.80;;;;;;4853945;29;20211;-75
2022/05/03 17:20:40;;;;;;;2.70;2.40;;;18.50;92.20;;;;;;4851920;29;20211;-75
2022/05/03 17:23:08;;;;;;;3.53;2.10;;;18.50;92.50;;;;;;4859574;29;20219;-75
2022/05/03 17:25:37;;;;;;;4.67;2.23;;;18.40;92.50;;;;;;4862890;29;20813;-76
2022/05/03 17:28:06;;;;;;;2.43;2.10;;;18.20;92.10;;;;;;4862401;29;20211;-74
2022/05/03 17:30:34;;;;;;;2.20;2.00;;;18.10;93.50;;;;;;4862601;29;20245;-75
2022/05/03 17:33:03;;;;;;;4.00;2.00;;;18.10;93.00;;;;;;4863216;29;20215;-74
2022/05/03 17:35:31;;;;;;;2.40;2.10;;;18.00;92.20;;;;;;4865130;29;20226;-76
2022/05/03 17:37:59;;;;;;;4.27;2.60;;;17.80;92.30;;;;;;4860436;29;20235;-77
2022/05/03 17:40:28;;;;;;;3.70;2.30;;;17.60;92.90;;;;;;4845680;29;20211;-80
2022/05/03 17:42:58;;;;;;;4.37;2.50;;;17.50;93.00;;;;;;4845896;29;20219;-78
2022/05/03 17:45:26;;;;;;;3.33;2.30;;;17.40;93.40;;;;;;4845030;29;20264;-75
2022/05/03 17:47:58;;;;;;;5.67;2.63;;;17.30;93.50;;;;;;4839383;29;20284;-75
2022/05/03 17:50:26;;;;;;;4.20;2.50;;;17.20;94.00;;;;;;4846119;29;20227;-77
2022/05/03 17:55:40;;;;;;;5.97;2.63;;;17.00;95.40;;;;;;4843411;29;20208;-75
2022/05/03 17:58:10;;;;;;;4.50;2.83;;;16.90;95.40;;;;;;4852299;29;20246;-75
2022/05/03 18:00:38;;;;;;;5.17;3.40;;;16.80;96.30;;;;;;4863677;29;20270;-75
2022/05/03 18:03:08;;;;;;;4.13;3.00;;;16.70;97.20;;;;;;4847821;29;20276;-77